createdAt,value
2018-01-16T00:00:11.137Z,1.13
2018-01-16T00:02:38.421Z,1.00
2018-01-16T00:05:05.698Z,1.00
2018-01-16T00:07:32.936Z,1.33
2018-01-16T00:10:00.208Z,1.30
2018-01-16T00:12:27.463Z,1.33
2018-01-16T00:14:54.809Z,1.47
2018-01-16T00:17:22.066Z,1.27
2018-01-16T00:19:49.324Z,1.00
2018-01-16T00:22:22.580Z,0.80
2018-01-16T00:24:49.836Z,0.93
2018-01-16T00:27:17.131Z,1.07
2018-01-16T00:29:44.380Z,1.07
2018-01-16T00:32:11.637Z,0.97
2018-01-16T00:34:38.927Z,0.87
2018-01-16T00:37:06.184Z,0.80
2018-01-16T00:39:33.440Z,0.73
2018-01-16T00:42:00.720Z,0.70
2018-01-16T00:44:27.971Z,1.00
2018-01-16T00:46:55.256Z,0.67
2018-01-16T00:49:22.529Z,0.70
2018-01-16T00:51:49.768Z,0.87
2018-01-16T00:54:17.049Z,1.00
2018-01-16T00:56:44.292Z,0.67
2018-01-16T00:59:11.573Z,0.80
2018-01-16T01:01:38.820Z,0.60
2018-01-16T01:04:06.097Z,0.80
2018-01-16T01:06:33.348Z,0.80
2018-01-16T01:09:00.623Z,0.70
2018-01-16T01:11:27.884Z,1.00
2018-01-16T01:13:55.180Z,0.93
2018-01-16T01:16:22.427Z,0.83
2018-01-16T01:18:49.679Z,0.93
2018-01-16T01:21:16.947Z,0.77
2018-01-16T01:23:44.199Z,0.90
2018-01-16T01:26:11.476Z,0.70
2018-01-16T01:28:38.721Z,1.13
2018-01-16T01:31:06.008Z,0.83
2018-01-16T01:33:33.296Z,1.00
2018-01-16T01:36:00.549Z,1.20
2018-01-16T01:38:27.796Z,0.70
2018-01-16T01:40:55.078Z,0.93
2018-01-16T01:43:22.355Z,1.10
2018-01-16T01:45:49.628Z,0.87
2018-01-16T01:48:16.877Z,1.20
2018-01-16T01:50:44.161Z,0.90
2018-01-16T01:53:11.421Z,0.70
2018-01-16T01:55:38.680Z,0.77
2018-01-16T01:58:05.971Z,0.80
2018-01-16T02:00:33.215Z,0.63
2018-01-16T02:03:00.477Z,0.83
2018-01-16T02:05:27.751Z,0.90
2018-01-16T02:07:55.012Z,0.70
2018-01-16T02:10:22.299Z,1.00
2018-01-16T02:12:49.549Z,1.10
2018-01-16T02:15:16.797Z,0.70
2018-01-16T02:17:44.081Z,0.90
2018-01-16T02:20:11.367Z,0.80
2018-01-16T02:22:38.621Z,1.03
2018-01-16T02:25:05.879Z,0.97
2018-01-16T02:27:33.152Z,0.70
2018-01-16T02:30:00.414Z,1.20
2018-01-16T02:32:27.692Z,1.03
2018-01-16T02:34:54.940Z,0.97
2018-01-16T02:37:22.220Z,0.93
2018-01-16T02:39:49.497Z,1.00
2018-01-16T02:42:16.749Z,1.00
2018-01-16T02:44:44.032Z,1.10
2018-01-16T02:47:11.287Z,0.90
2018-01-16T02:49:38.577Z,1.00
2018-01-16T02:52:05.836Z,1.00
2018-01-16T02:54:33.095Z,1.60
2018-01-16T02:57:00.371Z,1.00
2018-01-16T02:59:27.623Z,1.10
2018-01-16T03:01:54.901Z,0.73
2018-01-16T03:04:22.152Z,1.10
2018-01-16T03:06:49.409Z,1.33
2018-01-16T03:09:16.675Z,0.90
2018-01-16T03:11:43.966Z,1.20
2018-01-16T03:14:11.219Z,0.80
2018-01-16T03:16:38.472Z,1.00
2018-01-16T03:19:05.755Z,0.90
2018-01-16T03:21:33.045Z,0.77
2018-01-16T03:24:00.291Z,0.80
2018-01-16T03:26:27.540Z,0.90
2018-01-16T03:28:54.820Z,1.27
2018-01-16T03:31:22.113Z,1.00
2018-01-16T03:33:49.357Z,1.27
2018-01-16T03:36:16.616Z,1.03
2018-01-16T03:38:43.891Z,1.30
2018-01-16T03:41:11.152Z,1.03
2018-01-16T03:43:38.440Z,1.60
2018-01-16T03:46:05.692Z,1.20
2018-01-16T03:48:32.953Z,1.70
2018-01-16T03:51:00.233Z,1.40
2018-01-16T03:53:27.490Z,1.27
2018-01-16T03:55:54.780Z,1.30
2018-01-16T03:58:22.048Z,1.73
2018-01-16T04:00:49.335Z,1.23
2018-01-16T04:03:16.588Z,1.63
2018-01-16T04:05:43.846Z,1.63
2018-01-16T04:08:11.123Z,1.30
2018-01-16T04:10:38.379Z,1.10
2018-01-16T04:13:05.657Z,2.33
2018-01-16T04:15:32.911Z,1.83
2018-01-16T04:18:00.176Z,1.30
2018-01-16T04:20:27.454Z,1.93
2018-01-16T04:22:54.705Z,1.30
2018-01-16T04:25:22.216Z,1.30
2018-01-16T04:27:49.464Z,1.37
2018-01-16T04:30:16.872Z,1.33
2018-01-16T04:32:44.157Z,2.17
2018-01-16T04:35:11.444Z,1.40
2018-01-16T04:37:38.692Z,1.17
2018-01-16T04:40:05.948Z,1.30
2018-01-16T04:42:33.283Z,2.00
2018-01-16T04:45:00.480Z,1.73
2018-01-16T04:47:27.730Z,1.57
2018-01-16T04:49:55.009Z,1.87
2018-01-16T04:52:22.264Z,1.60
2018-01-16T04:54:49.547Z,1.20
2018-01-16T04:57:16.800Z,1.50
2018-01-16T04:59:44.071Z,1.93
2018-01-16T05:02:11.344Z,1.97
2018-01-16T05:04:38.600Z,1.50
2018-01-16T05:07:05.872Z,1.77
2018-01-16T05:09:33.132Z,1.60
2018-01-16T05:12:00.416Z,1.73
2018-01-16T05:14:27.672Z,2.07
2018-01-16T05:16:54.925Z,1.73
2018-01-16T05:19:22.200Z,1.90
2018-01-16T05:21:49.448Z,1.50
2018-01-16T05:24:16.720Z,2.10
2018-01-16T05:26:44.005Z,1.60
2018-01-16T05:29:11.285Z,1.50
2018-01-16T05:31:38.540Z,2.00
2018-01-16T05:34:05.818Z,1.80
2018-01-16T05:36:33.064Z,2.00
2018-01-16T05:39:00.345Z,1.93
2018-01-16T05:41:27.607Z,1.87
2018-01-16T05:43:54.871Z,2.10
2018-01-16T05:46:22.164Z,1.50
2018-01-16T05:48:49.439Z,1.40
2018-01-16T05:51:16.700Z,1.40
2018-01-16T05:53:43.975Z,1.33
2018-01-16T05:56:11.236Z,1.20
2018-01-16T05:58:38.516Z,0.60
2018-01-16T06:01:05.764Z,0.70
2018-01-16T06:03:33.069Z,0.67
2018-01-16T06:06:00.344Z,0.50
2018-01-16T06:08:27.600Z,0.70
2018-01-16T06:10:54.898Z,0.63
2018-01-16T06:13:22.184Z,0.80
2018-01-16T06:15:49.444Z,0.87
2018-01-16T06:18:16.791Z,0.70
2018-01-16T06:20:44.043Z,0.60
2018-01-16T06:23:11.327Z,0.70
2018-01-16T06:25:38.589Z,0.97
2018-01-16T06:28:05.912Z,0.80
2018-01-16T06:30:33.204Z,0.80
2018-01-16T06:33:00.524Z,1.17
2018-01-16T06:35:27.778Z,0.67
2018-01-16T06:37:55.136Z,0.77
2018-01-16T06:40:22.379Z,0.70
2018-01-16T06:42:49.672Z,0.73
2018-01-16T06:45:16.917Z,0.60
2018-01-16T06:47:44.164Z,1.00
2018-01-16T06:50:11.438Z,0.93
2018-01-16T06:52:38.692Z,1.07
2018-01-16T06:55:05.976Z,1.10
2018-01-16T06:57:33.235Z,1.13
2018-01-16T07:00:00.495Z,0.90
2018-01-16T07:02:27.767Z,0.90
2018-01-16T07:04:55.058Z,1.10
2018-01-16T07:07:22.341Z,1.00
2018-01-16T07:09:49.588Z,1.20
2018-01-16T07:12:16.881Z,1.20
2018-01-16T07:14:44.130Z,0.90
2018-01-16T07:17:11.392Z,0.93
2018-01-16T07:19:38.662Z,1.00
2018-01-16T07:22:06.002Z,1.00
2018-01-16T07:24:33.253Z,0.90
2018-01-16T07:27:00.531Z,0.90
2018-01-16T07:29:27.780Z,0.97
2018-01-16T07:31:55.154Z,1.00
2018-01-16T07:34:22.400Z,0.83
2018-01-16T07:36:49.689Z,0.80
2018-01-16T07:39:16.950Z,0.77
2018-01-16T07:41:44.205Z,0.80
2018-01-16T07:44:11.488Z,0.90
2018-01-16T07:46:38.835Z,1.17
2018-01-16T07:49:06.088Z,1.50
2018-01-16T07:51:33.378Z,0.90
2018-01-16T07:54:00.628Z,0.90
2018-01-16T07:56:27.899Z,1.00
2018-01-16T07:58:55.160Z,0.60
2018-01-16T08:01:22.445Z,0.80
2018-01-16T08:03:49.724Z,0.67
2018-01-16T08:06:16.971Z,0.70
2018-01-16T08:08:44.249Z,0.70
2018-01-16T08:11:11.495Z,0.60
2018-01-16T08:13:38.835Z,0.80
2018-01-16T08:16:06.091Z,0.83
2018-01-16T08:18:33.370Z,0.70
2018-01-16T08:21:00.706Z,0.80
2018-01-16T08:23:27.960Z,0.77
2018-01-16T08:25:55.243Z,0.70
2018-01-16T08:28:22.560Z,1.17
2018-01-16T08:30:49.843Z,0.87
2018-01-16T08:33:17.134Z,0.93
2018-01-16T08:35:44.387Z,0.87
2018-01-16T08:38:11.669Z,0.60
2018-01-16T08:40:38.919Z,0.50
2018-01-16T08:43:06.280Z,0.70
2018-01-16T08:45:33.561Z,0.63
2018-01-16T08:48:00.862Z,0.50
2018-01-16T08:50:28.135Z,0.50
2018-01-16T08:52:55.419Z,0.70
2018-01-16T08:55:22.664Z,0.50
2018-01-16T08:57:49.911Z,0.60
2018-01-16T09:00:17.207Z,0.53
2018-01-16T09:02:44.483Z,0.60
2018-01-16T09:05:11.778Z,0.60
2018-01-16T09:07:39.031Z,0.57
2018-01-16T09:10:06.271Z,0.50
2018-01-16T09:12:33.561Z,0.60
2018-01-16T09:15:00.841Z,0.50
2018-01-16T09:17:28.122Z,0.53
2018-01-16T09:19:55.377Z,0.83
2018-01-16T09:22:22.653Z,0.40
2018-01-16T09:24:49.940Z,0.50
2018-01-16T09:27:17.194Z,0.60
2018-01-16T09:29:44.437Z,0.70
2018-01-16T09:32:11.719Z,0.60
2018-01-16T09:34:38.968Z,0.70
2018-01-16T09:37:06.222Z,0.97
2018-01-16T09:39:33.518Z,0.70
2018-01-16T09:42:00.766Z,0.60
2018-01-16T09:44:28.020Z,0.43
2018-01-16T09:46:55.300Z,0.50
2018-01-16T09:49:22.557Z,0.63
2018-01-16T09:51:49.840Z,0.60
2018-01-16T09:54:17.137Z,0.50
2018-01-16T09:56:44.423Z,0.50
2018-01-16T09:59:11.674Z,0.50
2018-01-16T10:01:38.913Z,0.70
2018-01-16T10:04:06.188Z,0.60
2018-01-16T10:06:33.517Z,0.60
2018-01-16T10:09:00.792Z,0.50
2018-01-16T10:11:28.121Z,0.60
2018-01-16T10:13:55.406Z,0.50
2018-01-16T10:16:22.681Z,0.43
2018-01-16T10:18:49.963Z,0.50
2018-01-16T10:21:17.222Z,0.53
2018-01-16T10:23:44.500Z,0.70
2018-01-16T10:26:11.753Z,0.70
2018-01-16T10:28:39.032Z,0.60
2018-01-16T10:31:06.283Z,0.57
2018-01-16T10:33:33.699Z,0.53
2018-01-16T10:36:00.945Z,0.50
2018-01-16T10:38:28.208Z,0.50
2018-01-16T10:40:55.488Z,0.80
2018-01-16T10:43:22.765Z,0.73
2018-01-16T10:45:50.074Z,0.50
2018-01-16T10:48:17.319Z,0.50
2018-01-16T10:50:44.597Z,0.70
2018-01-16T10:53:11.877Z,0.60
2018-01-16T10:55:39.121Z,0.70
2018-01-16T10:58:06.383Z,0.90
2018-01-16T11:00:33.670Z,0.80
2018-01-16T11:03:00.912Z,0.80
2018-01-16T11:05:28.199Z,0.77
2018-01-16T11:07:55.448Z,0.80
2018-01-16T11:10:22.731Z,1.73
2018-01-16T11:12:49.984Z,0.90
2018-01-16T11:15:17.235Z,0.70
2018-01-16T11:17:44.565Z,0.80
2018-01-16T11:20:11.832Z,0.97
2018-01-16T11:22:39.180Z,0.77
2018-01-16T11:25:06.442Z,0.60
2018-01-16T11:27:33.685Z,0.70
2018-01-16T11:30:00.959Z,1.03
2018-01-16T11:32:28.216Z,0.73
2018-01-16T11:34:55.500Z,0.73
2018-01-16T11:37:22.754Z,0.77
2018-01-16T11:39:50.032Z,0.73
2018-01-16T11:42:17.295Z,0.93
2018-01-16T11:44:44.670Z,0.60
2018-01-16T11:47:11.922Z,0.80
2018-01-16T11:49:39.171Z,0.67
2018-01-16T11:52:06.447Z,0.70
2018-01-16T11:54:33.779Z,0.60
2018-01-16T11:57:01.139Z,0.83
2018-01-16T11:59:28.393Z,0.70
2018-01-16T12:01:55.663Z,0.60
2018-01-16T12:04:22.912Z,0.70
2018-01-16T12:06:50.196Z,0.70
2018-01-16T12:09:17.477Z,0.70
2018-01-16T12:11:44.729Z,0.63
2018-01-16T12:14:12.004Z,1.10
2018-01-16T12:16:39.249Z,0.50
2018-01-16T12:19:06.519Z,0.87
2018-01-16T12:21:33.785Z,1.07
2018-01-16T12:24:01.074Z,1.00
2018-01-16T12:26:28.377Z,1.07
2018-01-16T12:28:55.658Z,0.87
2018-01-16T12:31:22.909Z,0.80
2018-01-16T12:33:50.181Z,0.83
2018-01-16T12:36:17.452Z,1.40
2018-01-16T12:38:44.697Z,0.87
2018-01-16T12:41:12.005Z,0.83
2018-01-16T12:43:39.260Z,1.00
2018-01-16T12:46:06.543Z,1.03
2018-01-16T12:48:33.860Z,1.10
2018-01-16T12:51:01.128Z,0.80
2018-01-16T12:53:28.408Z,0.93
2018-01-16T12:55:55.688Z,1.40
2018-01-16T12:58:22.972Z,1.27
2018-01-16T13:00:50.976Z,0.70
2018-01-16T13:03:18.350Z,1.10
2018-01-16T13:05:49.732Z,0.90
2018-01-16T13:08:17.354Z,1.20
2018-01-16T13:10:44.625Z,0.70
2018-01-16T13:13:11.936Z,0.73
2018-01-16T13:15:39.284Z,0.80
2018-01-16T13:18:06.536Z,1.20
2018-01-16T13:20:33.892Z,0.80
2018-01-16T13:23:01.254Z,0.97
2018-01-16T13:25:28.513Z,0.87
2018-01-16T13:27:55.786Z,1.00
2018-01-16T13:30:23.040Z,0.90
2018-01-16T13:32:50.369Z,1.00
2018-01-16T13:35:17.657Z,1.10
2018-01-16T13:37:44.904Z,0.63
2018-01-16T13:40:12.281Z,1.50
2018-01-16T13:42:39.487Z,1.30
2018-01-16T13:45:06.761Z,1.13
2018-01-16T13:47:34.044Z,1.33
2018-01-16T13:50:01.324Z,1.00
2018-01-16T13:52:28.584Z,1.00
2018-01-16T13:54:56.000Z,0.90
2018-01-16T13:57:23.263Z,1.33
2018-01-16T13:59:50.532Z,0.80
2018-01-16T14:02:17.808Z,1.30
2018-01-16T14:04:45.181Z,1.20
2018-01-16T14:07:12.420Z,1.20
2018-01-16T14:09:39.727Z,1.03
2018-01-16T14:12:06.972Z,1.30
2018-01-16T14:14:34.226Z,1.50
2018-01-16T14:17:02.341Z,1.00
2018-01-16T14:19:29.629Z,1.00
2018-01-16T14:21:56.873Z,1.50
2018-01-16T14:24:24.155Z,1.53
2018-01-16T14:26:51.477Z,1.30
2018-01-16T14:29:18.752Z,1.37
2018-01-16T14:31:46.002Z,1.20
2018-01-16T14:34:13.337Z,1.40
2018-01-16T14:36:40.580Z,1.20
2018-01-16T14:39:07.832Z,1.20
2018-01-16T14:41:35.116Z,1.00
2018-01-16T14:44:02.461Z,1.00
2018-01-16T14:46:29.727Z,1.30
2018-01-16T14:48:57.060Z,1.73
2018-01-16T14:51:24.352Z,1.47
2018-01-16T14:53:51.599Z,1.20
2018-01-16T14:56:18.856Z,1.43
2018-01-16T14:58:46.139Z,1.23
2018-01-16T15:01:13.393Z,1.30
2018-01-16T15:03:40.690Z,1.27
2018-01-16T15:06:07.944Z,1.10
2018-01-16T15:08:35.192Z,1.57
2018-01-16T15:11:02.469Z,1.20
2018-01-16T15:13:29.720Z,1.30
2018-01-16T15:15:56.997Z,1.03
2018-01-16T15:18:24.245Z,1.00
2018-01-16T15:20:51.521Z,1.40
2018-01-16T15:23:18.804Z,1.60
2018-01-16T15:25:46.064Z,1.63
2018-01-16T15:28:13.320Z,1.40
2018-01-16T15:30:40.605Z,1.70
2018-01-16T15:33:07.928Z,2.00
2018-01-16T15:35:35.199Z,1.30
2018-01-16T15:38:02.465Z,1.60
2018-01-16T15:40:29.734Z,2.57
2018-01-16T15:42:57.004Z,1.60
2018-01-16T15:45:24.260Z,1.20
2018-01-16T15:47:51.548Z,1.13
2018-01-16T15:50:18.789Z,1.20
2018-01-16T15:52:46.049Z,1.57
2018-01-16T15:55:13.319Z,1.17
2018-01-16T15:57:40.569Z,2.10
2018-01-16T16:00:07.821Z,1.70
2018-01-16T16:02:35.096Z,1.57
2018-01-16T16:05:02.361Z,1.20
2018-01-16T16:07:29.620Z,1.30
2018-01-16T16:09:56.875Z,1.80
2018-01-16T16:12:24.148Z,1.47
2018-01-16T16:14:51.442Z,1.30
2018-01-16T16:17:18.708Z,0.97
2018-01-16T16:19:45.992Z,1.43
2018-01-16T16:22:13.246Z,1.33
2018-01-16T16:24:40.525Z,1.50
2018-01-16T16:27:07.775Z,1.47
2018-01-16T16:29:35.052Z,1.30
2018-01-16T16:32:02.312Z,1.83
2018-01-16T16:34:29.606Z,1.40
2018-01-16T16:36:56.980Z,1.30
2018-01-16T16:39:24.227Z,1.40
2018-01-16T16:41:51.487Z,1.27
2018-01-16T16:44:18.760Z,1.20
2018-01-16T16:46:46.052Z,1.40
2018-01-16T16:49:13.331Z,1.47
2018-01-16T16:51:40.605Z,1.53
2018-01-16T16:54:07.872Z,1.27
2018-01-16T16:56:35.152Z,1.00
2018-01-16T16:59:02.407Z,1.57
2018-01-16T17:01:29.674Z,1.80
2018-01-16T17:03:56.920Z,1.40
2018-01-16T17:06:24.207Z,2.30
2018-01-16T17:08:51.468Z,2.70
2018-01-16T17:11:18.738Z,1.53
2018-01-16T17:13:46.018Z,1.77
2018-01-16T17:16:13.268Z,1.70
2018-01-16T17:18:40.643Z,3.37
2018-01-16T17:21:07.887Z,4.37
2018-01-16T17:23:35.144Z,2.07
2018-01-16T17:26:02.421Z,2.03
2018-01-16T17:28:29.667Z,1.90
2018-01-16T17:30:56.953Z,2.33
2018-01-16T17:33:24.235Z,1.57
2018-01-16T17:35:51.492Z,1.17
2018-01-16T17:38:18.768Z,1.83
2018-01-16T17:40:46.020Z,1.70
2018-01-16T17:43:13.280Z,1.70
2018-01-16T17:45:40.560Z,1.20
2018-01-16T17:48:07.880Z,1.33
2018-01-16T17:50:35.158Z,1.53
2018-01-16T17:53:02.431Z,1.03
2018-01-16T17:55:29.677Z,1.20
2018-01-16T17:57:56.972Z,1.00
2018-01-16T18:00:24.220Z,1.23
2018-01-16T18:02:51.472Z,1.27
2018-01-16T18:05:18.745Z,1.30
2018-01-16T18:07:46.040Z,1.60
2018-01-16T18:10:13.291Z,1.67
2018-01-16T18:12:40.537Z,1.67
2018-01-16T18:15:07.823Z,0.87
2018-01-16T18:17:35.062Z,1.43
2018-01-16T18:20:02.342Z,1.90
2018-01-16T18:22:29.647Z,1.13
2018-01-16T18:24:56.927Z,1.23
2018-01-16T18:27:24.179Z,1.53
2018-01-16T18:29:51.502Z,1.20
2018-01-16T18:32:18.817Z,1.30
2018-01-16T18:34:46.024Z,1.70
2018-01-16T18:37:13.319Z,1.30
2018-01-16T18:39:40.612Z,1.13
2018-01-16T18:42:07.864Z,1.23
2018-01-16T18:44:35.161Z,1.10
2018-01-16T18:47:02.420Z,1.20
2018-01-16T18:49:29.666Z,1.37
2018-01-16T18:51:56.932Z,1.10
2018-01-16T18:54:24.183Z,1.50
2018-01-16T18:56:51.464Z,1.53
2018-01-16T18:59:19.255Z,1.10
2018-01-16T19:01:46.552Z,1.23
2018-01-16T19:04:13.815Z,1.10
2018-01-16T19:06:41.092Z,1.00
2018-01-16T19:09:08.342Z,1.47
2018-01-16T19:11:35.633Z,1.27
2018-01-16T19:14:02.888Z,1.40
2018-01-16T19:16:30.175Z,1.60
2018-01-16T19:18:57.427Z,1.40
2018-01-16T19:21:24.720Z,1.30
2018-01-16T19:23:51.952Z,1.00
2018-01-16T19:26:19.211Z,1.57
2018-01-16T19:28:46.503Z,1.53
2018-01-16T19:31:13.777Z,1.70
2018-01-16T19:33:41.051Z,1.30
2018-01-16T19:36:08.365Z,1.70
2018-01-16T19:38:35.716Z,1.23
2018-01-16T19:41:02.969Z,1.17
2018-01-16T19:43:30.260Z,1.10
2018-01-16T19:45:57.583Z,1.47
2018-01-16T19:48:24.832Z,1.67
2018-01-16T19:50:52.103Z,1.30
2018-01-16T19:53:19.384Z,1.50
2018-01-16T19:55:46.657Z,1.10
2018-01-16T19:58:13.964Z,1.03
2018-01-16T20:00:41.249Z,1.10
2018-01-16T20:03:08.562Z,1.23
2018-01-16T20:05:35.807Z,1.07
2018-01-16T20:08:03.092Z,1.57
2018-01-16T20:10:30.340Z,1.50
2018-01-16T20:12:57.587Z,1.40
2018-01-16T20:15:24.872Z,1.50
2018-01-16T20:17:52.189Z,1.17
2018-01-16T20:20:19.471Z,1.70
2018-01-16T20:22:46.755Z,1.57
2018-01-16T20:25:14.000Z,1.70
2018-01-16T20:27:41.263Z,2.10
2018-01-16T20:30:08.639Z,1.43
2018-01-16T20:32:35.899Z,1.40
2018-01-16T20:35:03.155Z,1.80
2018-01-16T20:37:30.395Z,1.37
2018-01-16T20:39:57.671Z,1.50
2018-01-16T20:42:24.928Z,1.53
2018-01-16T20:44:52.203Z,1.60
2018-01-16T20:47:19.537Z,1.30
2018-01-16T20:49:46.808Z,1.57
2018-01-16T20:52:14.143Z,1.20
2018-01-16T20:54:41.396Z,1.60
2018-01-16T20:57:08.688Z,1.53
2018-01-16T20:59:35.935Z,1.53
2018-01-16T21:02:03.191Z,1.50
2018-01-16T21:04:30.463Z,1.50
2018-01-16T21:06:57.849Z,1.20
2018-01-16T21:09:25.220Z,1.60
2018-01-16T21:11:52.472Z,1.40
2018-01-16T21:14:19.768Z,1.30
2018-01-16T21:16:47.015Z,1.40
2018-01-16T21:19:14.272Z,1.97
2018-01-16T21:21:41.541Z,1.63
2018-01-16T21:24:08.784Z,1.17
2018-01-16T21:26:36.076Z,1.20
2018-01-16T21:29:03.327Z,1.57
2018-01-16T21:31:30.595Z,1.40
2018-01-16T21:33:57.863Z,0.90
2018-01-16T21:36:25.097Z,1.23
2018-01-16T21:38:52.363Z,1.43
2018-01-16T21:41:19.621Z,1.23
2018-01-16T21:43:46.884Z,1.27
2018-01-16T21:46:14.231Z,1.37
2018-01-16T21:48:41.498Z,1.50
2018-01-16T21:51:08.756Z,1.40
2018-01-16T21:53:36.019Z,1.30
2018-01-16T21:56:03.266Z,1.20
2018-01-16T21:58:30.535Z,1.47
2018-01-16T22:00:57.784Z,1.20
2018-01-16T22:03:25.043Z,1.43
2018-01-16T22:05:52.291Z,1.20
2018-01-16T22:08:19.551Z,1.50
2018-01-16T22:10:46.856Z,1.40
2018-01-16T22:13:14.239Z,1.43
2018-01-16T22:15:41.489Z,1.20
2018-01-16T22:18:09.462Z,1.37
2018-01-16T22:20:36.710Z,1.10
2018-01-16T22:23:03.980Z,1.67
2018-01-16T22:25:31.232Z,1.63
2018-01-16T22:27:58.499Z,1.47
2018-01-16T22:30:25.748Z,1.23
2018-01-16T22:32:53.016Z,1.10
2018-01-16T22:35:20.272Z,1.50
2018-01-16T22:37:47.523Z,1.27
2018-01-16T22:40:14.797Z,1.33
2018-01-16T22:42:42.054Z,1.77
2018-01-16T22:45:09.320Z,1.20
2018-01-16T22:47:36.572Z,1.20
2018-01-16T22:50:03.837Z,1.53
2018-01-16T22:52:31.184Z,1.30
2018-01-16T22:54:58.451Z,1.50
2018-01-16T22:57:25.699Z,1.70
2018-01-16T22:59:53.049Z,1.17
2018-01-16T23:02:20.318Z,1.63
2018-01-16T23:04:47.584Z,1.87
2018-01-16T23:07:14.832Z,1.00
2018-01-16T23:09:42.101Z,1.20
2018-01-16T23:12:09.352Z,1.10
2018-01-16T23:14:36.628Z,1.30
2018-01-16T23:17:03.877Z,1.17
2018-01-16T23:19:31.151Z,1.30
2018-01-16T23:21:58.404Z,1.30
2018-01-16T23:24:25.681Z,1.20
2018-01-16T23:26:52.932Z,1.57
2018-01-16T23:29:20.190Z,1.67
2018-01-16T23:31:47.450Z,1.93
2018-01-16T23:34:14.704Z,1.20
2018-01-16T23:36:41.973Z,2.00
2018-01-16T23:39:09.230Z,1.07
2018-01-16T23:41:36.498Z,1.37
2018-01-16T23:44:03.740Z,1.50
2018-01-16T23:46:31.019Z,1.27
2018-01-16T23:48:58.271Z,1.37
2018-01-16T23:51:25.584Z,1.30
2018-01-16T23:53:52.837Z,1.30
2018-01-16T23:56:20.100Z,1.67
2018-01-16T23:58:47.372Z,1.20
